Saimaagracht — PHCQ — position and weather

sailwx.info

Track history (hours):
 
Tides and Currents Weather Stations Pressure Air Temp Water Temp Dewpoint Dewpoint Depression Visibility Wind Speed Wind Dir Waves Ship Positions

Saimaagracht

Last reported at 2019-Jan-22 02:55 UTC. Time now 2019-Jan-22 05:57 UTC.
Position N 60°14' E 019°04'.

Length 173 m; beam 26 m.

Type: Cargo ship. MMSI: 246293000.

Date/timePositionNaut miles runAvg speedWind from/ knotsBaromVisibWave heightAir tempDewpointWater temp
2019-Jan-22 02:55N 60°14' E 019°04'615.0
2019-Jan-22 02:31N 60°09' E 019°10'815.4
2019-Jan-22 02:00N 60°03' E 019°20'815.5
2019-Jan-22 01:30N 59°57' E 019°30'815.4
2019-Jan-22 01:01N 59°51' E 019°39'815.3
2019-Jan-22 00:30N 59°45' E 019°49'22414.0
2019-Jan-21 08:31N 56°20' E 017°00'015.6
2019-Jan-21 08:30N 56°20' E 017°00'814.3
2019-Jan-21 07:59N 56°13' E 016°57'714.3
2019-Jan-21 07:30N 56°07' E 016°51'713.7
2019-Jan-21 07:00N 56°02' E 016°42'713.7
2019-Jan-21 06:30N 55°58' E 016°32'713.4
2019-Jan-21 06:00N 55°55' E 016°21'713.2
2019-Jan-21 05:30N 55°52' E 016°11'714.0
2019-Jan-21 05:00N 55°48' E 016°00'714.4
2019-Jan-21 04:30N 55°45' E 015°49'714.4
2019-Jan-21 04:00N 55°42' E 015°37'713.5
2019-Jan-21 03:30N 55°39' E 015°27'713.7
2019-Jan-21 03:00N 55°35' E 015°17'3313.7
2019-Jan-21 00:37N 55°16' E 014°29'213.7
2019-Jan-21 00:29N 55°15' E 014°27'714.0
2019-Jan-21 00:00N 55°10' E 014°19'714.2
2019-Jan-20 23:30N 55°04' E 014°11'7413.4
2019-Jan-20 17:59N 54°32' E 012°16'1311.6
2019-Jan-20 16:50N 54°25' E 011°57'513.2
2019-Jan-20 16:28N 54°25' E 011°49'613.4
2019-Jan-20 16:01N 54°27' E 011°38'714.6
2019-Jan-20 15:31N 54°30' E 011°27'713.1
2019-Jan-20 15:00N 54°33' E 011°17'612.7
2019-Jan-20 14:30N 54°36' E 011°08'713.1
2019-Jan-20 14:00N 54°40' E 010°58'611.6
2019-Jan-20 13:30N 54°44' E 010°52'612.8
2019-Jan-20 13:00N 54°51' E 010°52'612.1
2019-Jan-20 12:30N 54°56' E 010°56'611.9
2019-Jan-20 12:00N 55°01' E 011°01'712.9
2019-Jan-20 11:30N 55°08' E 011°02'612.4
2019-Jan-20 11:00N 55°14' E 011°06'1013.0
2019-Jan-20 10:13N 55°24' E 010°60'413.6
2019-Jan-20 09:56N 55°27' E 010°56'9612.3
2019-Jan-20 02:09N 56°59' E 011°43'213.4
2019-Jan-20 01:59N 57°01' E 011°42'613.5
2019-Jan-20 01:30N 57°07' E 011°37'713.6
2019-Jan-20 01:01N 57°13' E 011°32'713.5
2019-Jan-20 00:31N 57°20' E 011°29'713.6
2019-Jan-20 00:01N 57°26' E 011°25'713.3
2019-Jan-19 23:31N 57°31' E 011°16'713.8
2019-Jan-19 23:01N 57°35' E 011°05'713.8
2019-Jan-19 22:30N 57°38' E 010°54'713.9
2019-Jan-19 22:00N 57°41' E 010°42'3 5.9
2019-Jan-19 21:29N 57°42' E 010°37'0 0.0
2019-Jan-19 20:59N 57°42' E 010°37'0 0.1
2019-Jan-19 20:29N 57°42' E 010°37'0 0.0
2019-Jan-19 19:59N 57°42' E 010°37'0 0.0
2019-Jan-19 19:29N 57°42' E 010°37'0 0.0
2019-Jan-19 18:59N 57°42' E 010°37'0 0.1
2019-Jan-19 18:26N 57°42' E 010°37'0 0.0
2019-Jan-19 17:56N 57°42' E 010°37'0 0.0
2019-Jan-19 17:29N 57°42' E 010°37'0 0.0
2019-Jan-19 16:59N 57°42' E 010°37'0 0.0
2019-Jan-19 16:29N 57°42' E 010°37'0 0.0
2019-Jan-19 15:59N 57°42' E 010°37'0 0.0
2019-Jan-19 15:29N 57°42' E 010°37'0 0.1
2019-Jan-19 14:56N 57°42' E 010°37'0 0.0
2019-Jan-19 14:26N 57°42' E 010°37'0 0.2
2019-Jan-19 13:59N 57°42' E 010°37'0 0.2
2019-Jan-19 13:26N 57°42' E 010°37'0 0.0
2019-Jan-19 12:59N 57°42' E 010°37'0 0.0
2019-Jan-19 12:29N 57°42' E 010°37'0 0.0
2019-Jan-19 11:59N 57°42' E 010°37'0 0.1
2019-Jan-19 11:26N 57°42' E 010°36'0 0.1
2019-Jan-19 10:59N 57°42' E 010°37'0 0.1
2019-Jan-19 10:30N 57°42' E 010°37'0 0.0
2019-Jan-19 10:00N 57°42' E 010°37'0 0.0
2019-Jan-19 09:30N 57°42' E 010°37'0 0.0
2019-Jan-19 09:00N 57°42' E 010°37'0 0.0
2019-Jan-19 08:30N 57°42' E 010°37'0 0.1
2019-Jan-19 08:00N 57°42' E 010°37'0 0.1
2019-Jan-19 07:30N 57°42' E 010°37'1 1.3
2019-Jan-19 07:00N 57°42' E 010°38'4 7.6
2019-Jan-19 06:30N 57°43' E 010°44'4 8.8
2019-Jan-19 06:00N 57°48' E 010°43'611.2
2019-Jan-19 05:30N 57°47' E 010°33'610.8
2019-Jan-19 04:57N 57°47' E 010°21'810.6
2019-Jan-19 04:12N 57°47' E 010°07'411.6
2019-Jan-19 03:52N 57°47' E 009°59'611.5
2019-Jan-19 03:19N 57°45' E 009°48'411.7
2019-Jan-19 02:58N 57°44' E 009°40'811.7
2019-Jan-19 02:17N 57°41' E 009°26'511.9
2019-Jan-19 01:55N 57°40' E 009°18'1211.7
2019-Jan-19 00:52N 57°33' E 008°59'411.8
2019-Jan-19 00:30N 57°30' E 008°53'711.7
2019-Jan-18 23:57N 57°26' E 008°44'1911.7
2019-Jan-18 22:19N 57°14' E 008°17'811.5
2019-Jan-18 21:37N 57°08' E 008°07'26513.4
2019-Jan-18 01:51N 53°13' E 004°32'514.5
2019-Jan-18 01:30N 53°08' E 004°28'714.6
2019-Jan-18 01:00N 53°02' E 004°22'714.5
2019-Jan-18 00:30N 52°55' E 004°18'714.4
2019-Jan-18 00:00N 52°49' E 004°11'1314.1
2019-Jan-17 23:06N 52°40' E 003°57'114.4
2019-Jan-17 23:00N 52°39' E 003°56'713.9
2019-Jan-17 22:30N 52°34' E 003°47'1113.7
2019-Jan-17 21:42N 52°26' E 003°34'313.6
2019-Jan-17 21:30N 52°25' E 003°31'713.6
2019-Jan-17 21:00N 52°20' E 003°23'812.9
2019-Jan-17 20:24N 52°14' E 003°14'4611.8
2019-Jan-17 16:29N 51°39' E 002°26'611.7
2019-Jan-17 16:00N 51°35' E 002°20'611.9
2019-Jan-17 15:30N 51°30' E 002°13'612.2
2019-Jan-17 15:00N 51°26' E 002°06'611.4
2019-Jan-17 14:30N 51°24' E 001°58'714.8
2019-Jan-17 14:00N 51°29' E 001°49'714.7
2019-Jan-17 13:30N 51°29' E 001°37'612.9
2019-Jan-17 13:01N 51°26' E 001°28'815.6
2019-Jan-17 12:31N 51°29' E 001°16'815.4
2019-Jan-17 12:00N 51°30' E 001°04'816.2
2019-Jan-17 11:30N 51°28' E 000°51'4 8.9
2019-Jan-17 11:00N 51°26' E 000°44'0 0.0
2019-Jan-17 10:29N 51°26' E 000°44'0 0.0
2019-Jan-17 09:59N 51°26' E 000°44'0 0.0
2019-Jan-17 09:29N 51°26' E 000°44'0 0.0
2019-Jan-17 08:59N 51°26' E 000°44'0 0.0
2019-Jan-17 08:29N 51°26' E 000°44'0 0.0
2019-Jan-17 07:59N 51°26' E 000°44'0 0.0
2019-Jan-17 07:29N 51°26' E 000°44'0 0.0
2019-Jan-17 06:59N 51°26' E 000°44'0 0.0
2019-Jan-17 06:29N 51°26' E 000°44'0 0.0
2019-Jan-17 05:59N 51°26' E 000°44'0 0.0
2019-Jan-17 05:29N 51°26' E 000°44'0 0.0
2019-Jan-17 04:59N 51°26' E 000°44'0 0.0
2019-Jan-17 04:29N 51°26' E 000°44'0 0.0
2019-Jan-17 03:59N 51°26' E 000°44'0 0.0
2019-Jan-17 03:29N 51°26' E 000°44'0 0.0
2019-Jan-17 02:29N 51°26' E 000°44'0 0.0
2019-Jan-17 01:59N 51°26' E 000°44'0 0.0
2019-Jan-17 01:29N 51°26' E 000°44'0 0.0
2019-Jan-17 00:59N 51°26' E 000°44'0 0.0
2019-Jan-17 00:29N 51°26' E 000°44'0 0.0
2019-Jan-16 23:59N 51°26' E 000°44'0 0.0
2019-Jan-16 23:29N 51°26' E 000°44'0 0.0
2019-Jan-16 22:59N 51°26' E 000°44'0 0.0
2019-Jan-16 22:29N 51°26' E 000°44'0 0.0
2019-Jan-16 21:59N 51°26' E 000°44'0 0.0
2019-Jan-16 21:29N 51°26' E 000°44'0 0.0
2019-Jan-16 20:59N 51°26' E 000°44'0 0.0
2019-Jan-16 20:29N 51°26' E 000°44'0 0.0
2019-Jan-16 19:59N 51°26' E 000°44'0 0.0
2019-Jan-16 19:29N 51°26' E 000°44'0 0.0
2019-Jan-16 18:59N 51°26' E 000°44'0 0.0
2019-Jan-16 18:29N 51°26' E 000°44'0 0.0
2019-Jan-16 17:59N 51°26' E 000°44'0 0.0
2019-Jan-16 17:29N 51°26' E 000°44'0 0.0
2019-Jan-16 16:59N 51°26' E 000°44'0 0.0
2019-Jan-16 16:29N 51°26' E 000°44'0 0.0
2019-Jan-16 15:59N 51°26' E 000°44'0 0.0
2019-Jan-16 15:29N 51°26' E 000°44'0 0.0
2019-Jan-16 14:59N 51°26' E 000°44'0 0.0
2019-Jan-16 14:29N 51°26' E 000°44'0 0.0
2019-Jan-16 13:59N 51°26' E 000°44'0 0.0
2019-Jan-16 13:29N 51°26' E 000°44'0 0.0
2019-Jan-16 12:59N 51°26' E 000°44'0 0.0
2019-Jan-16 12:29N 51°26' E 000°44'0 0.0
2019-Jan-16 11:56N 51°26' E 000°44'0 0.0
2019-Jan-16 11:29N 51°26' E 000°44'0 0.0
2019-Jan-16 10:59N 51°26' E 000°44'0 0.0
2019-Jan-16 10:29N 51°26' E 000°44'0 0.0
2019-Jan-16 09:59N 51°26' E 000°44'0 0.0
2019-Jan-16 09:29N 51°26' E 000°44'0 0.0
2019-Jan-16 08:59N 51°26' E 000°44'0 0.0
2019-Jan-16 08:29N 51°26' E 000°44'0 0.0
2019-Jan-16 07:59N 51°26' E 000°44'0 0.0
2019-Jan-16 07:29N 51°26' E 000°44'0 0.0
2019-Jan-16 06:59N 51°26' E 000°44'0 0.0
2019-Jan-16 06:29N 51°26' E 000°44'0 0.0
2019-Jan-16 05:59N 51°26' E 000°44'0 0.0
2019-Jan-16 05:29N 51°26' E 000°44'0 0.0
2019-Jan-16 04:59N 51°26' E 000°44'0 0.0
2019-Jan-16 04:29N 51°26' E 000°44'0 0.7
2019-Jan-16 04:00N 51°27' E 000°44'2 4.4
2019-Jan-16 03:31N 51°28' E 000°47'510.9
2019-Jan-16 03:00N 51°29' E 000°56'611.9
2019-Jan-16 02:30N 51°30' E 001°05'611.6
2019-Jan-16 02:01N 51°29' E 001°15'611.2
2019-Jan-16 01:30N 51°28' E 001°24'5 9.2
2019-Jan-16 01:00N 51°26' E 001°30'4 8.6
2019-Jan-16 00:30N 51°30' E 001°29'0 0.7
2019-Jan-15 23:58N 51°30' E 001°29'0 0.0
2019-Jan-15 23:28N 51°30' E 001°29'0 0.0
2019-Jan-15 22:58N 51°30' E 001°29'0 0.0
2019-Jan-15 22:28N 51°30' E 001°29'0 0.0
2019-Jan-15 21:58N 51°30' E 001°29'0 0.0
2019-Jan-15 21:28N 51°30' E 001°29'0 0.0
2019-Jan-15 20:58N 51°30' E 001°29'0 0.0
2019-Jan-15 20:28N 51°30' E 001°28'0 0.0
2019-Jan-15 20:00N 51°30' E 001°28'0 0.0
2019-Jan-15 19:30N 51°30' E 001°28'0 0.1
2019-Jan-15 19:00N 51°30' E 001°28'0 0.1
2019-Jan-15 18:31N 51°30' E 001°28'0 0.1
2019-Jan-15 18:00N 51°30' E 001°28'0 0.1
2019-Jan-15 17:30N 51°30' E 001°28'0 0.1
2019-Jan-15 17:00N 51°30' E 001°28'0 0.0
2019-Jan-15 16:30N 51°30' E 001°28'0 0.0
2019-Jan-15 16:00N 51°30' E 001°28'0 0.1
2019-Jan-15 15:30N 51°30' E 001°28'0 0.1
2019-Jan-15 15:00N 51°30' E 001°28'0 0.2
2019-Jan-15 14:30N 51°30' E 001°28'0 0.2
2019-Jan-15 14:00N 51°30' E 001°29'0 0.1
2019-Jan-15 13:30N 51°30' E 001°29'0 0.0
2019-Jan-15 13:00N 51°30' E 001°29'0 0.0
2019-Jan-15 12:30N 51°30' E 001°29'0 0.1
2019-Jan-15 12:00N 51°30' E 001°29'0 0.0
2019-Jan-15 11:30N 51°30' E 001°29'2 4.7
2019-Jan-15 11:00N 51°29' E 001°31'713.8
2019-Jan-15 10:31N 51°22' E 001°35'714.5
2019-Jan-15 10:01N 51°15' E 001°37'713.4
2019-Jan-15 09:31N 51°09' E 001°40'611.9
2019-Jan-15 09:00N 51°03' E 001°36'815.6
2019-Jan-15 08:30N 50°57' E 001°28'815.0
2019-Jan-15 08:00N 50°50' E 001°23'813.8
2019-Jan-15 07:26N 50°43' E 001°19'10513.5
2019-Jan-14 23:39N 50°07' W 001°15'213.4
2019-Jan-14 23:30N 50°06' W 001°18'613.0
2019-Jan-14 23:01N 50°04' W 001°28'612.6
2019-Jan-14 22:30N 50°03' W 001°37'612.0
2019-Jan-14 22:01N 50°02' W 001°46'611.6
2019-Jan-14 21:30N 50°00' W 001°55'611.1
2019-Jan-14 21:00N 49°59' W 002°03'510.8
2019-Jan-14 20:30N 49°57' W 002°11'2311.6
2019-Jan-14 18:32N 49°51' W 002°46'012.9
2019-Jan-14 18:30N 49°51' W 002°46'1311.6
2019-Jan-14 17:25N 49°47' W 003°05'511.8
2019-Jan-14 17:00N 49°45' W 003°12'611.9
2019-Jan-14 16:30N 49°43' W 003°21'612.1
2019-Jan-14 16:00N 49°41' W 003°29'712.2
2019-Jan-14 15:24N 49°38' W 003°40'512.2
2019-Jan-14 14:57N 49°36' W 003°48'512.2
2019-Jan-14 14:30N 49°34' W 003°55'712.3
2019-Jan-14 13:59N 49°33' W 004°05'712.3
2019-Jan-14 13:25N 49°31' W 004°15'  
Track history (hours):
 
Tides and Currents Weather Stations Pressure Air Temp Water Temp Dewpoint Dewpoint Depression Visibility Wind Speed Wind Dir Waves Ship Positions

Saimaagracht

Last reported at 2019-Jan-22 02:55 UTC. Time now 2019-Jan-22 05:57 UTC.
Position N 60°14' E 019°04'.

Length 173 m; beam 26 m.

Type: Cargo ship. MMSI: 246293000.

Date/timePositionNaut miles runAvg speedWind from/ knotsBaromVisibWave heightAir tempDewpointWater temp
2019-Jan-22 02:55N 60°14' E 019°04'615.0
2019-Jan-22 02:31N 60°09' E 019°10'815.4
2019-Jan-22 02:00N 60°03' E 019°20'815.5
2019-Jan-22 01:30N 59°57' E 019°30'815.4
2019-Jan-22 01:01N 59°51' E 019°39'815.3
2019-Jan-22 00:30N 59°45' E 019°49'22414.0
2019-Jan-21 08:31N 56°20' E 017°00'015.6
2019-Jan-21 08:30N 56°20' E 017°00'814.3
2019-Jan-21 07:59N 56°13' E 016°57'714.3
2019-Jan-21 07:30N 56°07' E 016°51'713.7
2019-Jan-21 07:00N 56°02' E 016°42'713.7
2019-Jan-21 06:30N 55°58' E 016°32'713.4
2019-Jan-21 06:00N 55°55' E 016°21'713.2
2019-Jan-21 05:30N 55°52' E 016°11'714.0
2019-Jan-21 05:00N 55°48' E 016°00'714.4
2019-Jan-21 04:30N 55°45' E 015°49'714.4
2019-Jan-21 04:00N 55°42' E 015°37'713.5
2019-Jan-21 03:30N 55°39' E 015°27'713.7
2019-Jan-21 03:00N 55°35' E 015°17'3313.7
2019-Jan-21 00:37N 55°16' E 014°29'213.7
2019-Jan-21 00:29N 55°15' E 014°27'714.0
2019-Jan-21 00:00N 55°10' E 014°19'714.2
2019-Jan-20 23:30N 55°04' E 014°11'7413.4
2019-Jan-20 17:59N 54°32' E 012°16'1311.6
2019-Jan-20 16:50N 54°25' E 011°57'513.2
2019-Jan-20 16:28N 54°25' E 011°49'613.4
2019-Jan-20 16:01N 54°27' E 011°38'714.6
2019-Jan-20 15:31N 54°30' E 011°27'713.1
2019-Jan-20 15:00N 54°33' E 011°17'612.7
2019-Jan-20 14:30N 54°36' E 011°08'713.1
2019-Jan-20 14:00N 54°40' E 010°58'611.6
2019-Jan-20 13:30N 54°44' E 010°52'612.8
2019-Jan-20 13:00N 54°51' E 010°52'612.1
2019-Jan-20 12:30N 54°56' E 010°56'611.9
2019-Jan-20 12:00N 55°01' E 011°01'712.9
2019-Jan-20 11:30N 55°08' E 011°02'612.4
2019-Jan-20 11:00N 55°14' E 011°06'1013.0
2019-Jan-20 10:13N 55°24' E 010°60'413.6
2019-Jan-20 09:56N 55°27' E 010°56'9612.3
2019-Jan-20 02:09N 56°59' E 011°43'213.4
2019-Jan-20 01:59N 57°01' E 011°42'613.5
2019-Jan-20 01:30N 57°07' E 011°37'713.6
2019-Jan-20 01:01N 57°13' E 011°32'713.5
2019-Jan-20 00:31N 57°20' E 011°29'713.6
2019-Jan-20 00:01N 57°26' E 011°25'713.3
2019-Jan-19 23:31N 57°31' E 011°16'713.8
2019-Jan-19 23:01N 57°35' E 011°05'713.8
2019-Jan-19 22:30N 57°38' E 010°54'713.9
2019-Jan-19 22:00N 57°41' E 010°42'3 5.9
2019-Jan-19 21:29N 57°42' E 010°37'0 0.0
2019-Jan-19 20:59N 57°42' E 010°37'0 0.1
2019-Jan-19 20:29N 57°42' E 010°37'0 0.0
2019-Jan-19 19:59N 57°42' E 010°37'0 0.0
2019-Jan-19 19:29N 57°42' E 010°37'0 0.0
2019-Jan-19 18:59N 57°42' E 010°37'0 0.1
2019-Jan-19 18:26N 57°42' E 010°37'0 0.0
2019-Jan-19 17:56N 57°42' E 010°37'0 0.0
2019-Jan-19 17:29N 57°42' E 010°37'0 0.0
2019-Jan-19 16:59N 57°42' E 010°37'0 0.0
2019-Jan-19 16:29N 57°42' E 010°37'0 0.0
2019-Jan-19 15:59N 57°42' E 010°37'0 0.0
2019-Jan-19 15:29N 57°42' E 010°37'0 0.1
2019-Jan-19 14:56N 57°42' E 010°37'0 0.0
2019-Jan-19 14:26N 57°42' E 010°37'0 0.2
2019-Jan-19 13:59N 57°42' E 010°37'0 0.2
2019-Jan-19 13:26N 57°42' E 010°37'0 0.0
2019-Jan-19 12:59N 57°42' E 010°37'0 0.0
2019-Jan-19 12:29N 57°42' E 010°37'0 0.0
2019-Jan-19 11:59N 57°42' E 010°37'0 0.1
2019-Jan-19 11:26N 57°42' E 010°36'0 0.1
2019-Jan-19 10:59N 57°42' E 010°37'0 0.1
2019-Jan-19 10:30N 57°42' E 010°37'0 0.0
2019-Jan-19 10:00N 57°42' E 010°37'0 0.0
2019-Jan-19 09:30N 57°42' E 010°37'0 0.0
2019-Jan-19 09:00N 57°42' E 010°37'0 0.0
2019-Jan-19 08:30N 57°42' E 010°37'0 0.1
2019-Jan-19 08:00N 57°42' E 010°37'0 0.1
2019-Jan-19 07:30N 57°42' E 010°37'1 1.3
2019-Jan-19 07:00N 57°42' E 010°38'4 7.6
2019-Jan-19 06:30N 57°43' E 010°44'4 8.8
2019-Jan-19 06:00N 57°48' E 010°43'611.2
2019-Jan-19 05:30N 57°47' E 010°33'610.8
2019-Jan-19 04:57N 57°47' E 010°21'810.6
2019-Jan-19 04:12N 57°47' E 010°07'411.6
2019-Jan-19 03:52N 57°47' E 009°59'611.5
2019-Jan-19 03:19N 57°45' E 009°48'411.7
2019-Jan-19 02:58N 57°44' E 009°40'811.7
2019-Jan-19 02:17N 57°41' E 009°26'511.9
2019-Jan-19 01:55N 57°40' E 009°18'1211.7
2019-Jan-19 00:52N 57°33' E 008°59'411.8
2019-Jan-19 00:30N 57°30' E 008°53'711.7
2019-Jan-18 23:57N 57°26' E 008°44'1911.7
2019-Jan-18 22:19N 57°14' E 008°17'811.5
2019-Jan-18 21:37N 57°08' E 008°07'26513.4
2019-Jan-18 01:51N 53°13' E 004°32'514.5
2019-Jan-18 01:30N 53°08' E 004°28'714.6
2019-Jan-18 01:00N 53°02' E 004°22'714.5
2019-Jan-18 00:30N 52°55' E 004°18'714.4
2019-Jan-18 00:00N 52°49' E 004°11'1314.1
2019-Jan-17 23:06N 52°40' E 003°57'114.4
2019-Jan-17 23:00N 52°39' E 003°56'713.9
2019-Jan-17 22:30N 52°34' E 003°47'1113.7
2019-Jan-17 21:42N 52°26' E 003°34'313.6
2019-Jan-17 21:30N 52°25' E 003°31'713.6
2019-Jan-17 21:00N 52°20' E 003°23'812.9
2019-Jan-17 20:24N 52°14' E 003°14'4611.8
2019-Jan-17 16:29N 51°39' E 002°26'611.7
2019-Jan-17 16:00N 51°35' E 002°20'611.9
2019-Jan-17 15:30N 51°30' E 002°13'612.2
2019-Jan-17 15:00N 51°26' E 002°06'611.4
2019-Jan-17 14:30N 51°24' E 001°58'714.8
2019-Jan-17 14:00N 51°29' E 001°49'714.7
2019-Jan-17 13:30N 51°29' E 001°37'612.9
2019-Jan-17 13:01N 51°26' E 001°28'815.6
2019-Jan-17 12:31N 51°29' E 001°16'815.4
2019-Jan-17 12:00N 51°30' E 001°04'816.2
2019-Jan-17 11:30N 51°28' E 000°51'4 8.9
2019-Jan-17 11:00N 51°26' E 000°44'0 0.0
2019-Jan-17 10:29N 51°26' E 000°44'0 0.0
2019-Jan-17 09:59N 51°26' E 000°44'0 0.0
2019-Jan-17 09:29N 51°26' E 000°44'0 0.0
2019-Jan-17 08:59N 51°26' E 000°44'0 0.0
2019-Jan-17 08:29N 51°26' E 000°44'0 0.0
2019-Jan-17 07:59N 51°26' E 000°44'0 0.0
2019-Jan-17 07:29N 51°26' E 000°44'0 0.0
2019-Jan-17 06:59N 51°26' E 000°44'0 0.0
2019-Jan-17 06:29N 51°26' E 000°44'0 0.0
2019-Jan-17 05:59N 51°26' E 000°44'0 0.0
2019-Jan-17 05:29N 51°26' E 000°44'0 0.0
2019-Jan-17 04:59N 51°26' E 000°44'0 0.0
2019-Jan-17 04:29N 51°26' E 000°44'0 0.0
2019-Jan-17 03:59N 51°26' E 000°44'0 0.0
2019-Jan-17 03:29N 51°26' E 000°44'0 0.0
2019-Jan-17 02:29N 51°26' E 000°44'0 0.0
2019-Jan-17 01:59N 51°26' E 000°44'0 0.0
2019-Jan-17 01:29N 51°26' E 000°44'0 0.0
2019-Jan-17 00:59N 51°26' E 000°44'0 0.0
2019-Jan-17 00:29N 51°26' E 000°44'0 0.0
2019-Jan-16 23:59N 51°26' E 000°44'0 0.0
2019-Jan-16 23:29N 51°26' E 000°44'0 0.0
2019-Jan-16 22:59N 51°26' E 000°44'0 0.0
2019-Jan-16 22:29N 51°26' E 000°44'0 0.0
2019-Jan-16 21:59N 51°26' E 000°44'0 0.0
2019-Jan-16 21:29N 51°26' E 000°44'0 0.0
2019-Jan-16 20:59N 51°26' E 000°44'0 0.0
2019-Jan-16 20:29N 51°26' E 000°44'0 0.0
2019-Jan-16 19:59N 51°26' E 000°44'0 0.0
2019-Jan-16 19:29N 51°26' E 000°44'0 0.0
2019-Jan-16 18:59N 51°26' E 000°44'0 0.0
2019-Jan-16 18:29N 51°26' E 000°44'0 0.0
2019-Jan-16 17:59N 51°26' E 000°44'0 0.0
2019-Jan-16 17:29N 51°26' E 000°44'0 0.0
2019-Jan-16 16:59N 51°26' E 000°44'0 0.0
2019-Jan-16 16:29N 51°26' E 000°44'0 0.0
2019-Jan-16 15:59N 51°26' E 000°44'0 0.0
2019-Jan-16 15:29N 51°26' E 000°44'0 0.0
2019-Jan-16 14:59N 51°26' E 000°44'0 0.0
2019-Jan-16 14:29N 51°26' E 000°44'0 0.0
2019-Jan-16 13:59N 51°26' E 000°44'0 0.0
2019-Jan-16 13:29N 51°26' E 000°44'0 0.0
2019-Jan-16 12:59N 51°26' E 000°44'0 0.0
2019-Jan-16 12:29N 51°26' E 000°44'0 0.0
2019-Jan-16 11:56N 51°26' E 000°44'0 0.0
2019-Jan-16 11:29N 51°26' E 000°44'0 0.0
2019-Jan-16 10:59N 51°26' E 000°44'0 0.0
2019-Jan-16 10:29N 51°26' E 000°44'0 0.0
2019-Jan-16 09:59N 51°26' E 000°44'0 0.0
2019-Jan-16 09:29N 51°26' E 000°44'0 0.0
2019-Jan-16 08:59N 51°26' E 000°44'0 0.0
2019-Jan-16 08:29N 51°26' E 000°44'0 0.0
2019-Jan-16 07:59N 51°26' E 000°44'0 0.0
2019-Jan-16 07:29N 51°26' E 000°44'0 0.0
2019-Jan-16 06:59N 51°26' E 000°44'0 0.0
2019-Jan-16 06:29N 51°26' E 000°44'0 0.0
2019-Jan-16 05:59N 51°26' E 000°44'0 0.0
2019-Jan-16 05:29N 51°26' E 000°44'0 0.0
2019-Jan-16 04:59N 51°26' E 000°44'0 0.0
2019-Jan-16 04:29N 51°26' E 000°44'0 0.7
2019-Jan-16 04:00N 51°27' E 000°44'2 4.4
2019-Jan-16 03:31N 51°28' E 000°47'510.9
2019-Jan-16 03:00N 51°29' E 000°56'611.9
2019-Jan-16 02:30N 51°30' E 001°05'611.6
2019-Jan-16 02:01N 51°29' E 001°15'611.2
2019-Jan-16 01:30N 51°28' E 001°24'5 9.2
2019-Jan-16 01:00N 51°26' E 001°30'4 8.6
2019-Jan-16 00:30N 51°30' E 001°29'0 0.7
2019-Jan-15 23:58N 51°30' E 001°29'0 0.0
2019-Jan-15 23:28N 51°30' E 001°29'0 0.0
2019-Jan-15 22:58N 51°30' E 001°29'0 0.0
2019-Jan-15 22:28N 51°30' E 001°29'0 0.0
2019-Jan-15 21:58N 51°30' E 001°29'0 0.0
2019-Jan-15 21:28N 51°30' E 001°29'0 0.0
2019-Jan-15 20:58N 51°30' E 001°29'0 0.0
2019-Jan-15 20:28N 51°30' E 001°28'0 0.0
2019-Jan-15 20:00N 51°30' E 001°28'0 0.0
2019-Jan-15 19:30N 51°30' E 001°28'0 0.1
2019-Jan-15 19:00N 51°30' E 001°28'0 0.1
2019-Jan-15 18:31N 51°30' E 001°28'0 0.1
2019-Jan-15 18:00N 51°30' E 001°28'0 0.1
2019-Jan-15 17:30N 51°30' E 001°28'0 0.1
2019-Jan-15 17:00N 51°30' E 001°28'0 0.0
2019-Jan-15 16:30N 51°30' E 001°28'0 0.0
2019-Jan-15 16:00N 51°30' E 001°28'0 0.1
2019-Jan-15 15:30N 51°30' E 001°28'0 0.1
2019-Jan-15 15:00N 51°30' E 001°28'0 0.2
2019-Jan-15 14:30N 51°30' E 001°28'0 0.2
2019-Jan-15 14:00N 51°30' E 001°29'0 0.1
2019-Jan-15 13:30N 51°30' E 001°29'0 0.0
2019-Jan-15 13:00N 51°30' E 001°29'0 0.0
2019-Jan-15 12:30N 51°30' E 001°29'0 0.1
2019-Jan-15 12:00N 51°30' E 001°29'0 0.0
2019-Jan-15 11:30N 51°30' E 001°29'2 4.7
2019-Jan-15 11:00N 51°29' E 001°31'713.8
2019-Jan-15 10:31N 51°22' E 001°35'714.5
2019-Jan-15 10:01N 51°15' E 001°37'713.4
2019-Jan-15 09:31N 51°09' E 001°40'611.9
2019-Jan-15 09:00N 51°03' E 001°36'815.6
2019-Jan-15 08:30N 50°57' E 001°28'815.0
2019-Jan-15 08:00N 50°50' E 001°23'813.8
2019-Jan-15 07:26N 50°43' E 001°19'10513.5
2019-Jan-14 23:39N 50°07' W 001°15'213.4
2019-Jan-14 23:30N 50°06' W 001°18'613.0
2019-Jan-14 23:01N 50°04' W 001°28'612.6
2019-Jan-14 22:30N 50°03' W 001°37'612.0
2019-Jan-14 22:01N 50°02' W 001°46'611.6
2019-Jan-14 21:30N 50°00' W 001°55'611.1
2019-Jan-14 21:00N 49°59' W 002°03'510.8
2019-Jan-14 20:30N 49°57' W 002°11'2311.6
2019-Jan-14 18:32N 49°51' W 002°46'012.9
2019-Jan-14 18:30N 49°51' W 002°46'1311.6
2019-Jan-14 17:25N 49°47' W 003°05'511.8
2019-Jan-14 17:00N 49°45' W 003°12'611.9
2019-Jan-14 16:30N 49°43' W 003°21'612.1
2019-Jan-14 16:00N 49°41' W 003°29'712.2
2019-Jan-14 15:24N 49°38' W 003°40'512.2
2019-Jan-14 14:57N 49°36' W 003°48'512.2
2019-Jan-14 14:30N 49°34' W 003°55'712.3
2019-Jan-14 13:59N 49°33' W 004°05'712.3
2019-Jan-14 13:25N 49°31' W 004°15'  

Dump ship's entire track history